Urbion-Ventrosa, Spain
Current Conditions -  °F | °C
As of 1:00 AM on Sunday 26 Oct 2014 (Local Time) from LELO Reporting Station
Clear Clear  
Wind Chill: 55°   Ceiling: Unl
Heat Index: 55°   Visibility: 6mi
Dew Point: 54°   Wind: 0mph
Humidity: 94%   Direction: NA
Pressure: 30.21"   Gusts: NA
Location:  42.15°N, 2.85°W
Report Text: LELO 252300Z 00000KT CAVOK 13/12 Q1023
Loading
Personal Weather Stations






























Interactive Weather Map
Tropical Storm Tracking
New forecast layout! Learn more

10-Day Weather Forecast

Advertisements
Track Severe Weather on mobile